Stove Pipe Wells, California
Current Conditions -  °F | °C
As of 3:56 PM on Monday 24 Nov 2014 (Local Time) from KNID Reporting Station
Broken Clouds Broken Clouds  
Wind Chill: 18°   Ceiling: 28000
Heat Index: 18°   Visibility: 10mi
Dew Point: -12°   Wind: 9mph
Humidity: 13%   Direction: 100°E
Pressure: 30.34"   Gusts: NA
Location:  36.3785°N, 117.161°W
Report Text: KNID 242356Z 10008KT 10SM BKN280 18/M12 A3034 RMK AO2 SLP277 T01781117 10189 20106 55003 $
Loading
Personal Weather Stations






























Interactive Weather Map New forecast layout! Learn more

10-Day Weather Forecast

Advertisements
Track Severe Weather on mobile